This is the latest recevied weather packets stored in our database for station/object W8KHW. If no packets are shown the sender has not sent any weather packets the latest 10 day(s).
| Time | Temp. | Humidity | Pressure | Rain* | Wind** | Luminosity | Snow |
|---|---|---|---|---|---|---|---|
| 1777931973 | 20.56° C | 62% | 1006.7 hPa | 0 mm | - | - | - |
| 1777931473 | 21.11° C | 59% | 1007.1 hPa | 0 mm | - | - | - |
| 1777930973 | 21.67° C | 57% | 1006.9 hPa | 0 mm | - | - | - |
| 1777930473 | 21.67° C | 59% | 1006.9 hPa | 0 mm | - | - | - |
| 1777929972 | 22.22° C | 55% | 1006.9 hPa | 0 mm | - | - | - |
| 1777929472 | 22.22° C | 57% | 1007 hPa | 0 mm | - | - | - |
| 1777928972 | 22.78° C | 55% | 1007 hPa | 0 mm | - | - | - |
| 1777928472 | 23.33° C | 53% | 1006.9 hPa | 0 mm | - | - | - |
| 1777927971 | 21.67° C | 58% | 1007.1 hPa | 0 mm | - | - | - |
| 1777927471 | 21.11° C | 60% | 1007 hPa | 0 mm | - | - | - |
| 1777926971 | 21.11° C | 60% | 1007.3 hPa | 0 mm | - | - | - |
| 1777926471 | 21.11° C | 61% | 1007.7 hPa | 0 mm | - | - | - |
| 1777925970 | 21.67° C | 57% | 1007.6 hPa | 0 mm | - | - | - |
| 1777925470 | 22.22° C | 59% | 1007.8 hPa | 0 mm | - | - | - |
| 1777924970 | 21.67° C | 57% | 1007.9 hPa | 0 mm | - | - | - |
| 1777924470 | 21.67° C | 58% | 1008.1 hPa | 0 mm | - | - | - |
| 1777923969 | 23.33° C | 56% | 1008.1 hPa | 0 mm | - | - | - |
| 1777923469 | 23.33° C | 53% | 1008 hPa | 0 mm | - | - | - |
| 1777922969 | 23.33° C | 55% | 1007.7 hPa | 0 mm | - | - | - |
| 1777922469 | 23.33° C | 55% | 1007.7 hPa | 0 mm | - | - | - |
| 1777921969 | 23.33° C | 55% | 1007.7 hPa | 0 mm | - | - | - |
| 1777921468 | 23.33° C | 55% | 1007.8 hPa | 0 mm | - | - | - |
| 1777920968 | 23.33° C | 54% | 1007.7 hPa | 0 mm | - | - | - |
| 1777920468 | 22.22° C | 55% | 1007.6 hPa | 0 mm | - | - | - |
| 1777919968 | 22.78° C | 53% | 1007.8 hPa | 0 mm | - | - | - |
* Rain latest hour (hover to see other rain measurements)
** Current wind speed in m/s (hover to see current wind gust speed)